sensor_id;sensor_type;location;lat;lon;timestamp;P1;durP1;ratioP1;P2;durP2;ratioP2
22965;SDS011;11649;48.090;9.754;2022-11-12T00:00:57;11.55;;;9.65;;
22965;SDS011;11649;48.090;9.754;2022-11-12T00:03:24;11.57;;;9.52;;
22965;SDS011;11649;48.090;9.754;2022-11-12T00:05:52;10.65;;;9.00;;
22965;SDS011;11649;48.090;9.754;2022-11-12T00:08:19;10.90;;;8.77;;
22965;SDS011;11649;48.090;9.754;2022-11-12T00:10:45;232.55;;;12.80;;
22965;SDS011;11649;48.090;9.754;2022-11-12T00:13:12;19.58;;;9.20;;
22965;SDS011;11649;48.090;9.754;2022-11-12T00:15:40;10.48;;;8.95;;
22965;SDS011;11649;48.090;9.754;2022-11-12T00:18:07;33.65;;;9.15;;
22965;SDS011;11649;48.090;9.754;2022-11-12T00:20:34;11.15;;;9.27;;
22965;SDS011;11649;48.090;9.754;2022-11-12T00:23:01;192.50;;;12.23;;
22965;SDS011;11649;48.090;9.754;2022-11-12T00:25:28;10.48;;;9.20;;
22965;SDS011;11649;48.090;9.754;2022-11-12T00:28:03;11.23;;;9.85;;
22965;SDS011;11649;48.090;9.754;2022-11-12T00:30:31;12.82;;;9.82;;
22965;SDS011;11649;48.090;9.754;2022-11-12T00:33:01;10.50;;;9.35;;
22965;SDS011;11649;48.090;9.754;2022-11-12T00:35:30;22.65;;;10.23;;
22965;SDS011;11649;48.090;9.754;2022-11-12T00:37:58;10.55;;;9.45;;
22965;SDS011;11649;48.090;9.754;2022-11-12T00:40:25;109.57;;;11.52;;
22965;SDS011;11649;48.090;9.754;2022-11-12T00:42:52;12.65;;;9.70;;
22965;SDS011;11649;48.090;9.754;2022-11-12T00:45:19;11.25;;;9.90;;
22965;SDS011;11649;48.090;9.754;2022-11-12T00:47:47;32.67;;;10.73;;
22965;SDS011;11649;48.090;9.754;2022-11-12T00:50:13;36.22;;;10.60;;
22965;SDS011;11649;48.090;9.754;2022-11-12T00:52:41;182.48;;;13.00;;
22965;SDS011;11649;48.090;9.754;2022-11-12T00:55:08;71.47;;;11.40;;
22965;SDS011;11649;48.090;9.754;2022-11-12T00:57:35;29.42;;;11.52;;
22965;SDS011;11649;48.090;9.754;2022-11-12T01:00:03;23.73;;;11.77;;
22965;SDS011;11649;48.090;9.754;2022-11-12T01:02:31;12.05;;;10.45;;
22965;SDS011;11649;48.090;9.754;2022-11-12T01:05:07;12.77;;;10.75;;
22965;SDS011;11649;48.090;9.754;2022-11-12T01:07:34;12.48;;;9.80;;
22965;SDS011;11649;48.090;9.754;2022-11-12T01:10:01;11.52;;;9.68;;
22965;SDS011;11649;48.090;9.754;2022-11-12T01:12:29;11.85;;;9.88;;
22965;SDS011;11649;48.090;9.754;2022-11-12T01:14:56;10.52;;;9.02;;
22965;SDS011;11649;48.090;9.754;2022-11-12T01:17:23;10.25;;;9.15;;
22965;SDS011;11649;48.090;9.754;2022-11-12T01:19:50;10.65;;;9.48;;
22965;SDS011;11649;48.090;9.754;2022-11-12T01:22:16;10.82;;;9.20;;
22965;SDS011;11649;48.090;9.754;2022-11-12T01:24:43;10.15;;;8.63;;
22965;SDS011;11649;48.090;9.754;2022-11-12T01:27:10;9.73;;;8.63;;
22965;SDS011;11649;48.090;9.754;2022-11-12T01:29:36;9.95;;;8.85;;
22965;SDS011;11649;48.090;9.754;2022-11-12T01:32:03;35.38;;;9.90;;
22965;SDS011;11649;48.090;9.754;2022-11-12T01:34:30;44.72;;;10.10;;
22965;SDS011;11649;48.090;9.754;2022-11-12T01:36:57;40.00;;;11.75;;
22965;SDS011;11649;48.090;9.754;2022-11-12T01:39:24;14.15;;;9.95;;
22965;SDS011;11649;48.090;9.754;2022-11-12T01:41:51;13.82;;;10.20;;
22965;SDS011;11649;48.090;9.754;2022-11-12T01:44:18;10.90;;;9.65;;
22965;SDS011;11649;48.090;9.754;2022-11-12T01:46:50;11.38;;;9.60;;
22965;SDS011;11649;48.090;9.754;2022-11-12T01:49:28;11.40;;;9.45;;
22965;SDS011;11649;48.090;9.754;2022-11-12T01:52:07;11.07;;;9.45;;
22965;SDS011;11649;48.090;9.754;2022-11-12T01:54:38;10.18;;;8.55;;
22965;SDS011;11649;48.090;9.754;2022-11-12T01:57:06;10.32;;;9.00;;
22965;SDS011;11649;48.090;9.754;2022-11-12T01:59:36;9.20;;;8.27;;
22965;SDS011;11649;48.090;9.754;2022-11-12T02:02:09;11.55;;;8.68;;
22965;SDS011;11649;48.090;9.754;2022-11-12T02:04:37;10.32;;;8.98;;
22965;SDS011;11649;48.090;9.754;2022-11-12T02:07:05;22.27;;;10.32;;
22965;SDS011;11649;48.090;9.754;2022-11-12T02:09:33;15.73;;;9.55;;
22965;SDS011;11649;48.090;9.754;2022-11-12T02:12:01;11.02;;;9.07;;
22965;SDS011;11649;48.090;9.754;2022-11-12T02:14:28;10.82;;;8.82;;
22965;SDS011;11649;48.090;9.754;2022-11-12T02:16:56;10.52;;;8.98;;
22965;SDS011;11649;48.090;9.754;2022-11-12T02:19:23;9.68;;;8.52;;
22965;SDS011;11649;48.090;9.754;2022-11-12T02:21:51;9.38;;;8.38;;
22965;SDS011;11649;48.090;9.754;2022-11-12T02:26:45;9.68;;;8.45;;
22965;SDS011;11649;48.090;9.754;2022-11-12T02:29:14;15.68;;;9.73;;
22965;SDS011;11649;48.090;9.754;2022-11-12T02:31:41;9.75;;;8.65;;
22965;SDS011;11649;48.090;9.754;2022-11-12T02:34:07;10.10;;;8.68;;
22965;SDS011;11649;48.090;9.754;2022-11-12T02:36:34;23.27;;;9.23;;
22965;SDS011;11649;48.090;9.754;2022-11-12T02:39:02;10.95;;;9.18;;
22965;SDS011;11649;48.090;9.754;2022-11-12T02:41:29;10.05;;;8.30;;
22965;SDS011;11649;48.090;9.754;2022-11-12T02:43:55;9.77;;;8.38;;
22965;SDS011;11649;48.090;9.754;2022-11-12T02:46:22;9.93;;;8.75;;
22965;SDS011;11649;48.090;9.754;2022-11-12T02:48:49;9.05;;;8.13;;
22965;SDS011;11649;48.090;9.754;2022-11-12T02:51:16;9.77;;;8.25;;
22965;SDS011;11649;48.090;9.754;2022-11-12T02:53:42;9.00;;;7.82;;
22965;SDS011;11649;48.090;9.754;2022-11-12T02:56:09;9.63;;;8.50;;
22965;SDS011;11649;48.090;9.754;2022-11-12T02:58:36;9.55;;;8.07;;
22965;SDS011;11649;48.090;9.754;2022-11-12T03:01:02;13.88;;;8.68;;
22965;SDS011;11649;48.090;9.754;2022-11-12T03:03:29;10.63;;;8.95;;
22965;SDS011;11649;48.090;9.754;2022-11-12T03:05:58;9.65;;;8.32;;
22965;SDS011;11649;48.090;9.754;2022-11-12T03:08:26;9.00;;;8.00;;
22965;SDS011;11649;48.090;9.754;2022-11-12T03:10:54;9.93;;;8.52;;
22965;SDS011;11649;48.090;9.754;2022-11-12T03:13:20;9.88;;;8.25;;
22965;SDS011;11649;48.090;9.754;2022-11-12T03:15:47;9.95;;;8.02;;
22965;SDS011;11649;48.090;9.754;2022-11-12T03:18:14;9.80;;;8.48;;
22965;SDS011;11649;48.090;9.754;2022-11-12T03:20:41;8.98;;;8.00;;
22965;SDS011;11649;48.090;9.754;2022-11-12T03:23:09;10.55;;;8.95;;
22965;SDS011;11649;48.090;9.754;2022-11-12T03:25:36;11.45;;;8.77;;
22965;SDS011;11649;48.090;9.754;2022-11-12T03:28:11;9.73;;;8.40;;
22965;SDS011;11649;48.090;9.754;2022-11-12T03:30:39;9.40;;;7.97;;
22965;SDS011;11649;48.090;9.754;2022-11-12T03:33:08;9.15;;;7.75;;
22965;SDS011;11649;48.090;9.754;2022-11-12T03:35:37;9.43;;;7.70;;
22965;SDS011;11649;48.090;9.754;2022-11-12T03:38:05;9.20;;;8.15;;
22965;SDS011;11649;48.090;9.754;2022-11-12T03:40:32;11.45;;;8.65;;
22965;SDS011;11649;48.090;9.754;2022-11-12T03:42:59;11.35;;;8.88;;
22965;SDS011;11649;48.090;9.754;2022-11-12T03:45:26;12.43;;;8.80;;
22965;SDS011;11649;48.090;9.754;2022-11-12T03:47:54;13.75;;;9.13;;
22965;SDS011;11649;48.090;9.754;2022-11-12T03:50:23;10.23;;;8.35;;
22965;SDS011;11649;48.090;9.754;2022-11-12T03:52:54;10.75;;;9.20;;
22965;SDS011;11649;48.090;9.754;2022-11-12T03:55:23;12.55;;;9.75;;
22965;SDS011;11649;48.090;9.754;2022-11-12T03:57:52;11.48;;;9.30;;
22965;SDS011;11649;48.090;9.754;2022-11-12T04:00:20;11.57;;;9.60;;
22965;SDS011;11649;48.090;9.754;2022-11-12T04:02:49;32.22;;;9.43;;
22965;SDS011;11649;48.090;9.754;2022-11-12T04:05:16;9.80;;;7.97;;
22965;SDS011;11649;48.090;9.754;2022-11-12T04:08:03;24.25;;;9.73;;
22965;SDS011;11649;48.090;9.754;2022-11-12T04:10:49;10.93;;;8.68;;
22965;SDS011;11649;48.090;9.754;2022-11-12T04:13:16;11.52;;;9.00;;
22965;SDS011;11649;48.090;9.754;2022-11-12T04:16:06;9.38;;;7.97;;
22965;SDS011;11649;48.090;9.754;2022-11-12T04:18:54;9.88;;;8.32;;
22965;SDS011;11649;48.090;9.754;2022-11-12T04:21:43;26.17;;;8.48;;
22965;SDS011;11649;48.090;9.754;2022-11-12T04:24:18;9.40;;;7.60;;
22965;SDS011;11649;48.090;9.754;2022-11-12T04:27:07;15.57;;;7.45;;
22965;SDS011;11649;48.090;9.754;2022-11-12T04:29:39;8.63;;;7.25;;
22965;SDS011;11649;48.090;9.754;2022-11-12T04:32:24;7.95;;;7.10;;
22965;SDS011;11649;48.090;9.754;2022-11-12T04:34:51;8.35;;;7.40;;
22965;SDS011;11649;48.090;9.754;2022-11-12T04:37:19;34.03;;;8.07;;
22965;SDS011;11649;48.090;9.754;2022-11-12T04:39:49;18.25;;;7.90;;
22965;SDS011;11649;48.090;9.754;2022-11-12T04:42:16;9.18;;;7.50;;
22965;SDS011;11649;48.090;9.754;2022-11-12T04:45:06;13.98;;;8.73;;
22965;SDS011;11649;48.090;9.754;2022-11-12T04:47:37;10.82;;;8.52;;
22965;SDS011;11649;48.090;9.754;2022-11-12T04:50:12;8.63;;;7.32;;
22965;SDS011;11649;48.090;9.754;2022-11-12T04:52:41;9.25;;;7.75;;
22965;SDS011;11649;48.090;9.754;2022-11-12T04:55:07;9.40;;;7.80;;
22965;SDS011;11649;48.090;9.754;2022-11-12T04:57:35;10.35;;;7.68;;
22965;SDS011;11649;48.090;9.754;2022-11-12T05:00:03;7.25;;;6.28;;
22965;SDS011;11649;48.090;9.754;2022-11-12T05:02:31;7.22;;;6.38;;
22965;SDS011;11649;48.090;9.754;2022-11-12T05:04:57;8.05;;;6.47;;
22965;SDS011;11649;48.090;9.754;2022-11-12T05:07:24;8.75;;;6.70;;
22965;SDS011;11649;48.090;9.754;2022-11-12T05:09:51;8.70;;;6.57;;
22965;SDS011;11649;48.090;9.754;2022-11-12T05:12:18;8.82;;;6.80;;
22965;SDS011;11649;48.090;9.754;2022-11-12T05:14:44;7.50;;;6.55;;
22965;SDS011;11649;48.090;9.754;2022-11-12T05:17:11;7.60;;;6.60;;
22965;SDS011;11649;48.090;9.754;2022-11-12T05:19:38;7.20;;;6.15;;
22965;SDS011;11649;48.090;9.754;2022-11-12T05:22:04;7.30;;;5.65;;
22965;SDS011;11649;48.090;9.754;2022-11-12T05:24:38;8.57;;;6.65;;
22965;SDS011;11649;48.090;9.754;2022-11-12T05:27:12;7.63;;;6.80;;
22965;SDS011;11649;48.090;9.754;2022-11-12T05:29:43;9.00;;;7.22;;
22965;SDS011;11649;48.090;9.754;2022-11-12T05:32:11;8.25;;;7.03;;
22965;SDS011;11649;48.090;9.754;2022-11-12T05:34:39;8.93;;;7.20;;
22965;SDS011;11649;48.090;9.754;2022-11-12T05:37:06;8.45;;;7.05;;
22965;SDS011;11649;48.090;9.754;2022-11-12T05:39:35;9.60;;;7.63;;
22965;SDS011;11649;48.090;9.754;2022-11-12T05:42:02;10.70;;;7.68;;
22965;SDS011;11649;48.090;9.754;2022-11-12T05:44:39;10.60;;;8.32;;
22965;SDS011;11649;48.090;9.754;2022-11-12T05:47:06;21.90;;;9.73;;
22965;SDS011;11649;48.090;9.754;2022-11-12T05:49:33;30.83;;;9.85;;
22965;SDS011;11649;48.090;9.754;2022-11-12T05:51:59;11.23;;;8.63;;
22965;SDS011;11649;48.090;9.754;2022-11-12T05:54:26;17.95;;;9.93;;
22965;SDS011;11649;48.090;9.754;2022-11-12T05:56:53;11.48;;;8.80;;
22965;SDS011;11649;48.090;9.754;2022-11-12T05:59:20;14.07;;;9.43;;
22965;SDS011;11649;48.090;9.754;2022-11-12T06:01:47;12.40;;;8.98;;
22965;SDS011;11649;48.090;9.754;2022-11-12T06:04:14;12.07;;;9.25;;
22965;SDS011;11649;48.090;9.754;2022-11-12T06:06:42;12.65;;;9.52;;
22965;SDS011;11649;48.090;9.754;2022-11-12T06:09:09;17.45;;;10.40;;
22965;SDS011;11649;48.090;9.754;2022-11-12T06:11:37;15.48;;;10.50;;
22965;SDS011;11649;48.090;9.754;2022-11-12T06:14:04;15.73;;;10.85;;
22965;SDS011;11649;48.090;9.754;2022-11-12T06:16:31;15.38;;;10.68;;
22965;SDS011;11649;48.090;9.754;2022-11-12T06:18:58;13.68;;;10.52;;
22965;SDS011;11649;48.090;9.754;2022-11-12T06:21:25;14.65;;;11.32;;
22965;SDS011;11649;48.090;9.754;2022-11-12T06:23:57;14.20;;;10.45;;
22965;SDS011;11649;48.090;9.754;2022-11-12T06:26:25;14.13;;;10.80;;
22965;SDS011;11649;48.090;9.754;2022-11-12T06:28:55;17.55;;;13.90;;
22965;SDS011;11649;48.090;9.754;2022-11-12T06:31:22;12.93;;;9.82;;
22965;SDS011;11649;48.090;9.754;2022-11-12T06:33:49;13.00;;;10.13;;
22965;SDS011;11649;48.090;9.754;2022-11-12T06:36:17;12.98;;;9.82;;
22965;SDS011;11649;48.090;9.754;2022-11-12T06:38:45;16.10;;;10.18;;
22965;SDS011;11649;48.090;9.754;2022-11-12T06:41:13;11.15;;;8.73;;
22965;SDS011;11649;48.090;9.754;2022-11-12T06:43:40;11.90;;;9.38;;
22965;SDS011;11649;48.090;9.754;2022-11-12T06:46:11;14.57;;;9.63;;
22965;SDS011;11649;48.090;9.754;2022-11-12T06:48:40;20.83;;;11.05;;
22965;SDS011;11649;48.090;9.754;2022-11-12T06:51:08;33.05;;;11.95;;
22965;SDS011;11649;48.090;9.754;2022-11-12T06:53:37;18.65;;;11.15;;
22965;SDS011;11649;48.090;9.754;2022-11-12T06:56:04;22.25;;;12.75;;
22965;SDS011;11649;48.090;9.754;2022-11-12T06:58:32;20.67;;;12.27;;
22965;SDS011;11649;48.090;9.754;2022-11-12T07:01:07;17.98;;;12.55;;
22965;SDS011;11649;48.090;9.754;2022-11-12T07:03:39;17.00;;;11.23;;
22965;SDS011;11649;48.090;9.754;2022-11-12T07:06:11;20.77;;;12.63;;
22965;SDS011;11649;48.090;9.754;2022-11-12T07:08:40;19.30;;;12.27;;
22965;SDS011;11649;48.090;9.754;2022-11-12T07:11:07;19.27;;;13.05;;
22965;SDS011;11649;48.090;9.754;2022-11-12T07:13:34;15.75;;;11.07;;
22965;SDS011;11649;48.090;9.754;2022-11-12T07:16:02;21.55;;;15.45;;
22965;SDS011;11649;48.090;9.754;2022-11-12T07:18:31;18.90;;;11.65;;
22965;SDS011;11649;48.090;9.754;2022-11-12T07:20:59;20.70;;;12.38;;
22965;SDS011;11649;48.090;9.754;2022-11-12T07:23:28;16.20;;;11.13;;
22965;SDS011;11649;48.090;9.754;2022-11-12T07:26:18;16.23;;;11.23;;
22965;SDS011;11649;48.090;9.754;2022-11-12T07:28:48;16.27;;;10.48;;
22965;SDS011;11649;48.090;9.754;2022-11-12T07:31:17;17.35;;;11.20;;
22965;SDS011;11649;48.090;9.754;2022-11-12T07:33:45;22.98;;;14.02;;
22965;SDS011;11649;48.090;9.754;2022-11-12T07:36:15;24.75;;;16.85;;
22965;SDS011;11649;48.090;9.754;2022-11-12T07:38:43;13.73;;;10.10;;
22965;SDS011;11649;48.090;9.754;2022-11-12T07:41:12;12.85;;;9.27;;
22965;SDS011;11649;48.090;9.754;2022-11-12T07:43:40;13.52;;;9.65;;
22965;SDS011;11649;48.090;9.754;2022-11-12T07:46:16;14.80;;;10.90;;
22965;SDS011;11649;48.090;9.754;2022-11-12T07:48:44;22.60;;;11.80;;
22965;SDS011;11649;48.090;9.754;2022-11-12T07:51:22;16.67;;;11.30;;
22965;SDS011;11649;48.090;9.754;2022-11-12T07:53:52;15.65;;;11.30;;
22965;SDS011;11649;48.090;9.754;2022-11-12T07:56:24;17.15;;;11.40;;
22965;SDS011;11649;48.090;9.754;2022-11-12T07:58:52;15.75;;;10.77;;
22965;SDS011;11649;48.090;9.754;2022-11-12T08:01:24;17.40;;;11.73;;
22965;SDS011;11649;48.090;9.754;2022-11-12T08:03:56;27.13;;;11.48;;
22965;SDS011;11649;48.090;9.754;2022-11-12T08:06:24;16.15;;;11.30;;
22965;SDS011;11649;48.090;9.754;2022-11-12T08:08:52;15.95;;;10.32;;
22965;SDS011;11649;48.090;9.754;2022-11-12T08:11:20;15.57;;;10.30;;
22965;SDS011;11649;48.090;9.754;2022-11-12T08:13:47;14.68;;;9.82;;
22965;SDS011;11649;48.090;9.754;2022-11-12T08:16:14;15.60;;;10.80;;
22965;SDS011;11649;48.090;9.754;2022-11-12T08:18:41;14.18;;;10.15;;
22965;SDS011;11649;48.090;9.754;2022-11-12T08:21:09;13.05;;;9.63;;
22965;SDS011;11649;48.090;9.754;2022-11-12T08:23:38;14.73;;;10.35;;
22965;SDS011;11649;48.090;9.754;2022-11-12T08:26:06;13.43;;;9.65;;
22965;SDS011;11649;48.090;9.754;2022-11-12T08:28:36;15.05;;;11.10;;
22965;SDS011;11649;48.090;9.754;2022-11-12T08:31:07;15.80;;;11.02;;
22965;SDS011;11649;48.090;9.754;2022-11-12T08:33:36;17.88;;;11.10;;
22965;SDS011;11649;48.090;9.754;2022-11-12T08:36:03;16.65;;;11.35;;
22965;SDS011;11649;48.090;9.754;2022-11-12T08:38:31;14.13;;;10.55;;
22965;SDS011;11649;48.090;9.754;2022-11-12T08:41:02;17.35;;;11.60;;
22965;SDS011;11649;48.090;9.754;2022-11-12T08:43:30;14.95;;;10.52;;
22965;SDS011;11649;48.090;9.754;2022-11-12T08:45:58;16.45;;;11.60;;
22965;SDS011;11649;48.090;9.754;2022-11-12T08:48:25;14.73;;;10.25;;
22965;SDS011;11649;48.090;9.754;2022-11-12T08:50:54;15.70;;;10.25;;
22965;SDS011;11649;48.090;9.754;2022-11-12T08:53:22;15.52;;;10.35;;
22965;SDS011;11649;48.090;9.754;2022-11-12T08:55:53;14.77;;;10.98;;
22965;SDS011;11649;48.090;9.754;2022-11-12T08:58:21;20.33;;;13.45;;
22965;SDS011;11649;48.090;9.754;2022-11-12T09:00:50;23.95;;;14.93;;
22965;SDS011;11649;48.090;9.754;2022-11-12T09:03:22;25.17;;;14.60;;
22965;SDS011;11649;48.090;9.754;2022-11-12T09:05:50;17.33;;;12.25;;
22965;SDS011;11649;48.090;9.754;2022-11-12T09:08:19;15.48;;;10.43;;
22965;SDS011;11649;48.090;9.754;2022-11-12T09:10:48;14.90;;;10.60;;
22965;SDS011;11649;48.090;9.754;2022-11-12T09:13:15;15.55;;;10.50;;
22965;SDS011;11649;48.090;9.754;2022-11-12T09:15:43;12.90;;;9.63;;
22965;SDS011;11649;48.090;9.754;2022-11-12T09:18:15;13.18;;;9.80;;
22965;SDS011;11649;48.090;9.754;2022-11-12T09:20:43;23.30;;;11.65;;
22965;SDS011;11649;48.090;9.754;2022-11-12T09:23:12;15.93;;;11.60;;
22965;SDS011;11649;48.090;9.754;2022-11-12T09:25:40;14.80;;;10.65;;
22965;SDS011;11649;48.090;9.754;2022-11-12T09:28:17;17.20;;;11.82;;
22965;SDS011;11649;48.090;9.754;2022-11-12T09:30:45;18.52;;;12.00;;
22965;SDS011;11649;48.090;9.754;2022-11-12T09:33:24;15.48;;;11.23;;
22965;SDS011;11649;48.090;9.754;2022-11-12T09:36:01;14.20;;;10.70;;
22965;SDS011;11649;48.090;9.754;2022-11-12T09:38:29;18.42;;;12.77;;
22965;SDS011;11649;48.090;9.754;2022-11-12T09:46:00;12.87;;;9.20;;
22965;SDS011;11649;48.090;9.754;2022-11-12T09:49:02;12.68;;;8.43;;
22965;SDS011;11649;48.090;9.754;2022-11-12T09:51:33;11.98;;;9.00;;
22965;SDS011;11649;48.090;9.754;2022-11-12T09:54:18;12.73;;;8.93;;
22965;SDS011;11649;48.090;9.754;2022-11-12T09:56:51;11.60;;;8.98;;
22965;SDS011;11649;48.090;9.754;2022-11-12T09:59:19;15.30;;;10.70;;
22965;SDS011;11649;48.090;9.754;2022-11-12T10:01:53;16.17;;;11.02;;
22965;SDS011;11649;48.090;9.754;2022-11-12T10:09:54;15.13;;;10.80;;
22965;SDS011;11649;48.090;9.754;2022-11-12T10:12:34;15.25;;;10.02;;
22965;SDS011;11649;48.090;9.754;2022-11-12T10:21:15;14.23;;;10.07;;
22965;SDS011;11649;48.090;9.754;2022-11-12T10:23:49;16.50;;;10.82;;
22965;SDS011;11649;48.090;9.754;2022-11-12T10:26:18;17.58;;;12.85;;
22965;SDS011;11649;48.090;9.754;2022-11-12T10:31:36;16.95;;;12.07;;
22965;SDS011;11649;48.090;9.754;2022-11-12T10:34:14;14.90;;;10.80;;
22965;SDS011;11649;48.090;9.754;2022-11-12T10:36:53;14.95;;;11.15;;
22965;SDS011;11649;48.090;9.754;2022-11-12T10:39:37;15.98;;;11.32;;
22965;SDS011;11649;48.090;9.754;2022-11-12T10:42:10;16.67;;;11.10;;
22965;SDS011;11649;48.090;9.754;2022-11-12T10:44:39;16.77;;;11.30;;
22965;SDS011;11649;48.090;9.754;2022-11-12T10:52:31;13.50;;;10.27;;
22965;SDS011;11649;48.090;9.754;2022-11-12T11:00:37;14.95;;;10.75;;
22965;SDS011;11649;48.090;9.754;2022-11-12T11:03:26;14.23;;;10.95;;
22965;SDS011;11649;48.090;9.754;2022-11-12T11:13:42;17.52;;;12.50;;
22965;SDS011;11649;48.090;9.754;2022-11-12T11:16:14;14.93;;;11.38;;
22965;SDS011;11649;48.090;9.754;2022-11-12T11:18:54;16.20;;;11.10;;
22965;SDS011;11649;48.090;9.754;2022-11-12T11:23:56;15.23;;;11.02;;
22965;SDS011;11649;48.090;9.754;2022-11-12T11:26:48;14.73;;;11.20;;
22965;SDS011;11649;48.090;9.754;2022-11-12T11:37:52;15.90;;;11.32;;
22965;SDS011;11649;48.090;9.754;2022-11-12T11:40:45;19.00;;;12.38;;
22965;SDS011;11649;48.090;9.754;2022-11-12T11:49:04;19.90;;;13.82;;
22965;SDS011;11649;48.090;9.754;2022-11-12T11:51:43;19.08;;;13.27;;
22965;SDS011;11649;48.090;9.754;2022-11-12T11:57:00;18.75;;;12.88;;
22965;SDS011;11649;48.090;9.754;2022-11-12T12:17:49;18.08;;;12.68;;
22965;SDS011;11649;48.090;9.754;2022-11-12T12:20:02;19.30;;;12.82;;
22965;SDS011;11649;48.090;9.754;2022-11-12T12:22:35;19.13;;;13.52;;
22965;SDS011;11649;48.090;9.754;2022-11-12T12:25:11;16.30;;;12.23;;
22965;SDS011;11649;48.090;9.754;2022-11-12T12:27:50;17.48;;;12.35;;
22965;SDS011;11649;48.090;9.754;2022-11-12T12:30:24;15.60;;;11.70;;
22965;SDS011;11649;48.090;9.754;2022-11-12T12:32:56;16.02;;;11.70;;
22965;SDS011;11649;48.090;9.754;2022-11-12T12:35:35;19.25;;;13.80;;
22965;SDS011;11649;48.090;9.754;2022-11-12T12:38:10;17.38;;;13.02;;
22965;SDS011;11649;48.090;9.754;2022-11-12T12:40:51;17.33;;;12.48;;
22965;SDS011;11649;48.090;9.754;2022-11-12T12:43:46;16.67;;;12.75;;
22965;SDS011;11649;48.090;9.754;2022-11-12T12:46:19;16.42;;;11.95;;
22965;SDS011;11649;48.090;9.754;2022-11-12T12:48:50;16.40;;;12.00;;
22965;SDS011;11649;48.090;9.754;2022-11-12T12:51:20;17.65;;;13.25;;
22965;SDS011;11649;48.090;9.754;2022-11-12T12:53:47;20.48;;;15.45;;
22965;SDS011;11649;48.090;9.754;2022-11-12T12:58:47;16.92;;;12.52;;
22965;SDS011;11649;48.090;9.754;2022-11-12T13:16:57;15.52;;;11.98;;
22965;SDS011;11649;48.090;9.754;2022-11-12T13:19:25;19.38;;;12.48;;
22965;SDS011;11649;48.090;9.754;2022-11-12T13:43:00;16.20;;;12.57;;
22965;SDS011;11649;48.090;9.754;2022-11-12T13:45:31;18.05;;;11.95;;
22965;SDS011;11649;48.090;9.754;2022-11-12T13:48:05;18.88;;;12.48;;
22965;SDS011;11649;48.090;9.754;2022-11-12T13:50:33;15.88;;;12.10;;
22965;SDS011;11649;48.090;9.754;2022-11-12T13:53:07;15.68;;;11.90;;
22965;SDS011;11649;48.090;9.754;2022-11-12T13:55:35;16.17;;;12.85;;
22965;SDS011;11649;48.090;9.754;2022-11-12T13:58:23;15.95;;;12.25;;
22965;SDS011;11649;48.090;9.754;2022-11-12T14:00:53;15.40;;;11.93;;
22965;SDS011;11649;48.090;9.754;2022-11-12T14:03:22;17.70;;;13.40;;
22965;SDS011;11649;48.090;9.754;2022-11-12T14:05:52;14.77;;;11.90;;
22965;SDS011;11649;48.090;9.754;2022-11-12T14:09:03;16.02;;;12.10;;
22965;SDS011;11649;48.090;9.754;2022-11-12T14:16:33;16.98;;;12.60;;
22965;SDS011;11649;48.090;9.754;2022-11-12T14:22:00;14.38;;;11.52;;
22965;SDS011;11649;48.090;9.754;2022-11-12T14:24:33;15.93;;;11.35;;
22965;SDS011;11649;48.090;9.754;2022-11-12T14:27:00;15.45;;;12.18;;
22965;SDS011;11649;48.090;9.754;2022-11-12T14:29:27;13.77;;;11.07;;
22965;SDS011;11649;48.090;9.754;2022-11-12T14:32:01;17.95;;;13.70;;
22965;SDS011;11649;48.090;9.754;2022-11-12T14:34:29;16.70;;;12.77;;
22965;SDS011;11649;48.090;9.754;2022-11-12T14:36:58;15.43;;;12.60;;
22965;SDS011;11649;48.090;9.754;2022-11-12T14:39:26;16.33;;;12.55;;
22965;SDS011;11649;48.090;9.754;2022-11-12T14:41:55;18.40;;;13.20;;
22965;SDS011;11649;48.090;9.754;2022-11-12T14:44:27;17.25;;;13.00;;
22965;SDS011;11649;48.090;9.754;2022-11-12T14:46:59;16.38;;;12.73;;
22965;SDS011;11649;48.090;9.754;2022-11-12T14:49:40;16.27;;;12.70;;
22965;SDS011;11649;48.090;9.754;2022-11-12T14:54:43;15.85;;;12.70;;
22965;SDS011;11649;48.090;9.754;2022-11-12T14:57:19;15.77;;;12.60;;
22965;SDS011;11649;48.090;9.754;2022-11-12T14:59:55;17.67;;;12.68;;
22965;SDS011;11649;48.090;9.754;2022-11-12T15:05:14;15.82;;;13.07;;
22965;SDS011;11649;48.090;9.754;2022-11-12T15:07:56;17.33;;;13.10;;
22965;SDS011;11649;48.090;9.754;2022-11-12T15:15:28;15.13;;;11.88;;
22965;SDS011;11649;48.090;9.754;2022-11-12T15:17:58;15.60;;;12.10;;
22965;SDS011;11649;48.090;9.754;2022-11-12T15:20:27;16.70;;;12.77;;
22965;SDS011;11649;48.090;9.754;2022-11-12T15:22:54;14.77;;;11.82;;
22965;SDS011;11649;48.090;9.754;2022-11-12T15:27:52;14.93;;;12.32;;
22965;SDS011;11649;48.090;9.754;2022-11-12T15:30:22;15.65;;;12.70;;
22965;SDS011;11649;48.090;9.754;2022-11-12T15:33:07;14.48;;;12.05;;
22965;SDS011;11649;48.090;9.754;2022-11-12T15:35:37;16.90;;;12.57;;
22965;SDS011;11649;48.090;9.754;2022-11-12T15:38:14;18.02;;;12.98;;
22965;SDS011;11649;48.090;9.754;2022-11-12T15:40:52;17.63;;;12.50;;
22965;SDS011;11649;48.090;9.754;2022-11-12T15:43:26;15.38;;;12.35;;
22965;SDS011;11649;48.090;9.754;2022-11-12T15:45:55;14.15;;;11.98;;
22965;SDS011;11649;48.090;9.754;2022-11-12T15:48:22;14.98;;;12.57;;
22965;SDS011;11649;48.090;9.754;2022-11-12T15:50:49;16.67;;;12.75;;
22965;SDS011;11649;48.090;9.754;2022-11-12T15:53:16;15.02;;;12.40;;
22965;SDS011;11649;48.090;9.754;2022-11-12T15:55:45;18.23;;;13.68;;
22965;SDS011;11649;48.090;9.754;2022-11-12T15:58:16;16.02;;;13.20;;
22965;SDS011;11649;48.090;9.754;2022-11-12T16:00:52;18.15;;;13.80;;
22965;SDS011;11649;48.090;9.754;2022-11-12T16:03:19;15.90;;;12.95;;
22965;SDS011;11649;48.090;9.754;2022-11-12T16:05:47;15.57;;;12.82;;
22965;SDS011;11649;48.090;9.754;2022-11-12T16:08:14;16.67;;;13.25;;
22965;SDS011;11649;48.090;9.754;2022-11-12T16:10:42;18.80;;;14.70;;
22965;SDS011;11649;48.090;9.754;2022-11-12T16:13:11;16.33;;;13.32;;
22965;SDS011;11649;48.090;9.754;2022-11-12T16:16:00;16.25;;;13.25;;
22965;SDS011;11649;48.090;9.754;2022-11-12T16:18:30;16.77;;;13.15;;
22965;SDS011;11649;48.090;9.754;2022-11-12T16:20:56;17.95;;;14.85;;
22965;SDS011;11649;48.090;9.754;2022-11-12T16:23:23;17.10;;;13.95;;
22965;SDS011;11649;48.090;9.754;2022-11-12T16:25:50;18.02;;;13.85;;
22965;SDS011;11649;48.090;9.754;2022-11-12T16:28:17;17.92;;;13.77;;
22965;SDS011;11649;48.090;9.754;2022-11-12T16:30:45;18.05;;;14.70;;
22965;SDS011;11649;48.090;9.754;2022-11-12T16:33:12;15.13;;;12.88;;
22965;SDS011;11649;48.090;9.754;2022-11-12T16:35:39;18.38;;;15.00;;
22965;SDS011;11649;48.090;9.754;2022-11-12T16:38:11;16.80;;;14.02;;
22965;SDS011;11649;48.090;9.754;2022-11-12T16:40:43;20.63;;;15.10;;
22965;SDS011;11649;48.090;9.754;2022-11-12T16:43:10;20.23;;;15.35;;
22965;SDS011;11649;48.090;9.754;2022-11-12T16:45:37;21.92;;;15.35;;
22965;SDS011;11649;48.090;9.754;2022-11-12T16:48:10;15.93;;;13.73;;
22965;SDS011;11649;48.090;9.754;2022-11-12T16:50:45;17.30;;;14.55;;
22965;SDS011;11649;48.090;9.754;2022-11-12T16:53:12;15.75;;;13.57;;
22965;SDS011;11649;48.090;9.754;2022-11-12T16:55:39;19.17;;;14.98;;
22965;SDS011;11649;48.090;9.754;2022-11-12T16:58:06;15.88;;;13.52;;
22965;SDS011;11649;48.090;9.754;2022-11-12T17:00:36;18.02;;;14.35;;
22965;SDS011;11649;48.090;9.754;2022-11-12T17:03:04;16.98;;;14.15;;
22965;SDS011;11649;48.090;9.754;2022-11-12T17:05:30;16.10;;;13.70;;